createdAt,value
2018-10-18T00:01:02.510Z,7.70
2018-10-18T00:03:30.013Z,7.70
2018-10-18T00:05:57.485Z,7.70
2018-10-18T00:08:24.977Z,7.70
2018-10-18T00:10:52.450Z,7.70
2018-10-18T00:13:19.906Z,7.70
2018-10-18T00:15:47.642Z,7.70
2018-10-18T00:18:15.239Z,7.70
2018-10-18T00:20:42.653Z,7.60
2018-10-18T00:23:10.124Z,7.70
2018-10-18T00:25:37.577Z,7.70
2018-10-18T00:28:05.124Z,7.60
2018-10-18T00:30:32.604Z,7.60
2018-10-18T00:33:00.083Z,7.60
2018-10-18T00:35:27.578Z,7.60
2018-10-18T00:37:55.110Z,7.60
2018-10-18T00:40:22.601Z,7.60
2018-10-18T00:42:50.043Z,7.60
2018-10-18T00:45:17.573Z,7.50
2018-10-18T00:47:45.097Z,7.60
2018-10-18T00:50:12.650Z,7.50
2018-10-18T00:52:40.189Z,7.50
2018-10-18T00:55:08.768Z,7.50
2018-10-18T00:57:36.266Z,7.50
2018-10-18T01:00:04.249Z,7.50
2018-10-18T01:02:31.740Z,7.50
2018-10-18T01:04:59.221Z,7.40
2018-10-18T01:07:26.686Z,7.40
2018-10-18T01:09:54.164Z,7.40
2018-10-18T01:12:21.802Z,7.40
2018-10-18T01:14:49.193Z,7.40
2018-10-18T01:17:17.515Z,7.40
2018-10-18T01:19:44.995Z,7.30
2018-10-18T01:22:12.468Z,7.30
2018-10-18T01:24:39.956Z,7.30
2018-10-18T01:27:07.501Z,7.30
2018-10-18T01:29:34.969Z,7.30
2018-10-18T01:32:02.547Z,7.30
2018-10-18T01:34:29.905Z,7.30
2018-10-18T01:36:57.381Z,7.20
2018-10-18T01:39:24.900Z,7.20
2018-10-18T01:41:52.386Z,7.20
2018-10-18T01:44:19.917Z,7.20
2018-10-18T01:46:47.399Z,7.20
2018-10-18T01:49:14.854Z,7.20
2018-10-18T01:51:42.346Z,7.20
2018-10-18T01:54:09.900Z,7.20
2018-10-18T01:56:37.303Z,7.20
2018-10-18T01:59:04.865Z,7.20
2018-10-18T02:01:32.388Z,7.20
2018-10-18T02:04:00.233Z,7.10
2018-10-18T02:06:28.011Z,7.10
2018-10-18T02:08:55.484Z,7.10
2018-10-18T02:11:22.951Z,7.10
2018-10-18T02:13:50.483Z,7.00
2018-10-18T02:16:18.056Z,7.00
2018-10-18T02:18:45.569Z,7.00
2018-10-18T02:21:13.143Z,6.90
2018-10-18T02:23:40.619Z,6.90
2018-10-18T02:26:08.092Z,6.90
2018-10-18T02:28:35.696Z,6.90
2018-10-18T02:31:03.276Z,6.90
2018-10-18T02:33:30.782Z,6.90
2018-10-18T02:35:58.335Z,6.80
2018-10-18T02:38:25.818Z,6.80
2018-10-18T02:40:53.318Z,6.80
2018-10-18T02:43:20.802Z,6.80
2018-10-18T02:45:48.288Z,6.80
2018-10-18T02:48:15.901Z,6.80
2018-10-18T02:50:43.349Z,6.80
2018-10-18T02:53:10.820Z,6.80
2018-10-18T02:55:38.345Z,6.80
2018-10-18T02:58:05.871Z,6.80
2018-10-18T03:00:33.368Z,6.80
2018-10-18T03:03:00.836Z,6.80
2018-10-18T03:05:28.279Z,6.80
2018-10-18T03:07:55.833Z,6.80
2018-10-18T03:10:23.323Z,6.80
2018-10-18T03:12:50.817Z,6.80
2018-10-18T03:15:18.283Z,6.80
2018-10-18T03:17:45.855Z,6.80
2018-10-18T03:20:13.329Z,6.80
2018-10-18T03:22:40.819Z,6.80
2018-10-18T03:25:09.459Z,6.70
2018-10-18T03:27:37.225Z,6.70
2018-10-18T03:30:05.847Z,6.70
2018-10-18T03:32:33.193Z,6.70
2018-10-18T03:35:00.755Z,6.60
2018-10-18T03:37:28.230Z,6.60
2018-10-18T03:39:55.712Z,6.70
2018-10-18T03:42:23.212Z,6.60
2018-10-18T03:44:50.709Z,6.60
2018-10-18T03:47:18.176Z,6.60
2018-10-18T03:49:45.659Z,6.60
2018-10-18T03:52:13.152Z,6.60
2018-10-18T03:54:40.682Z,6.60
2018-10-18T03:57:08.188Z,6.60
2018-10-18T03:59:35.679Z,6.60
2018-10-18T04:02:03.263Z,6.60
2018-10-18T04:04:30.739Z,6.60
2018-10-18T04:06:58.227Z,6.60
2018-10-18T04:09:25.724Z,6.60
2018-10-18T04:11:53.256Z,6.60
2018-10-18T04:14:20.645Z,6.50
2018-10-18T04:16:48.121Z,6.50
2018-10-18T04:19:15.728Z,6.50
2018-10-18T04:21:43.226Z,6.50
2018-10-18T04:24:10.724Z,6.50
2018-10-18T04:26:38.216Z,6.50
2018-10-18T04:29:05.696Z,6.50
2018-10-18T04:31:33.175Z,6.40
2018-10-18T04:34:00.650Z,6.40
2018-10-18T04:36:28.126Z,6.40
2018-10-18T04:38:55.604Z,6.40
2018-10-18T04:41:23.075Z,6.40
2018-10-18T04:43:50.534Z,6.30
2018-10-18T04:46:18.020Z,6.30
2018-10-18T04:48:45.545Z,6.30
2018-10-18T04:51:12.949Z,6.30
2018-10-18T04:53:40.466Z,6.30
2018-10-18T04:56:07.981Z,6.30
2018-10-18T04:58:35.469Z,6.30
2018-10-18T05:01:03.060Z,6.40
2018-10-18T05:03:30.535Z,6.40
2018-10-18T05:05:59.506Z,6.40
2018-10-18T05:08:27.426Z,6.40
2018-10-18T05:10:55.210Z,6.40
2018-10-18T05:13:22.776Z,6.40
2018-10-18T05:15:50.324Z,6.40
2018-10-18T05:18:18.096Z,6.40
2018-10-18T05:20:45.960Z,6.40
2018-10-18T05:23:13.474Z,6.40
2018-10-18T05:25:41.146Z,6.30
2018-10-18T05:28:08.541Z,6.30
2018-10-18T05:30:36.114Z,6.30
2018-10-18T05:33:03.711Z,6.30
2018-10-18T05:35:31.231Z,6.30
2018-10-18T05:37:58.707Z,6.30
2018-10-18T05:40:26.222Z,6.30
2018-10-18T05:42:53.733Z,6.30
2018-10-18T05:45:21.233Z,6.30
2018-10-18T05:47:48.693Z,6.30
2018-10-18T05:50:16.179Z,6.30
2018-10-18T05:52:43.661Z,6.30
2018-10-18T05:55:11.927Z,6.30
2018-10-18T05:57:40.060Z,6.40
2018-10-18T06:00:13.193Z,6.40
2018-10-18T06:02:41.325Z,6.40
2018-10-18T06:05:09.687Z,6.50
2018-10-18T06:07:37.257Z,6.60
2018-10-18T06:10:15.088Z,6.70
2018-10-18T06:12:42.669Z,6.70
2018-10-18T06:15:10.244Z,6.90
2018-10-18T06:17:37.822Z,6.90
2018-10-18T06:20:05.800Z,7.00
2018-10-18T06:22:33.389Z,7.10
2018-10-18T06:25:00.908Z,7.30
2018-10-18T06:27:28.450Z,7.40
2018-10-18T06:29:55.971Z,7.60
2018-10-18T06:32:23.495Z,7.70
2018-10-18T06:34:51.013Z,7.80
2018-10-18T06:37:18.626Z,8.00
2018-10-18T06:39:46.073Z,8.20
2018-10-18T06:42:13.686Z,8.30
2018-10-18T06:44:41.245Z,8.50
2018-10-18T06:47:08.889Z,8.70
2018-10-18T06:49:36.522Z,8.80
2018-10-18T06:52:04.367Z,9.00
2018-10-18T06:54:31.916Z,9.10
2018-10-18T06:56:59.461Z,9.30
2018-10-18T06:59:27.765Z,9.50
2018-10-18T07:01:55.264Z,9.70
2018-10-18T07:04:22.786Z,9.90
2018-10-18T07:06:50.340Z,10.20
2018-10-18T07:09:17.874Z,10.90
2018-10-18T07:11:45.438Z,12.30
2018-10-18T07:14:13.055Z,13.90
2018-10-18T07:16:40.635Z,15.30
2018-10-18T07:19:08.227Z,16.60
2018-10-18T07:21:35.808Z,17.80
2018-10-18T07:24:03.527Z,18.90
2018-10-18T07:26:31.152Z,19.80
2018-10-18T07:28:58.743Z,20.80
2018-10-18T07:31:26.949Z,21.80
2018-10-18T07:33:54.507Z,22.60
2018-10-18T07:36:25.349Z,23.50
2018-10-18T07:38:52.973Z,24.30
2018-10-18T07:41:21.626Z,25.00
2018-10-18T07:43:49.163Z,25.50
2018-10-18T07:46:17.551Z,26.00
2018-10-18T07:48:45.166Z,26.40
2018-10-18T07:51:12.872Z,26.70
2018-10-18T07:53:40.562Z,26.80
2018-10-18T07:56:08.064Z,26.80
2018-10-18T07:58:35.733Z,26.90
2018-10-18T08:01:03.364Z,26.90
2018-10-18T08:03:31.714Z,26.70
2018-10-18T08:05:59.280Z,26.80
2018-10-18T08:08:26.892Z,27.10
2018-10-18T08:10:54.662Z,27.70
2018-10-18T08:13:22.240Z,28.20
2018-10-18T08:15:50.758Z,28.60
2018-10-18T08:18:19.747Z,28.80
2018-10-18T08:20:48.142Z,29.30
2018-10-18T08:23:15.781Z,29.60
2018-10-18T08:25:43.422Z,29.90
2018-10-18T08:28:11.221Z,30.30
2018-10-18T08:30:38.809Z,30.40
2018-10-18T08:33:06.417Z,30.20
2018-10-18T08:35:34.027Z,30.00
2018-10-18T08:38:01.786Z,29.90
2018-10-18T08:40:29.207Z,30.10
2018-10-18T08:42:56.865Z,30.30
2018-10-18T08:45:24.392Z,30.50
2018-10-18T08:47:53.362Z,30.80
2018-10-18T08:50:21.388Z,31.20
2018-10-18T08:52:48.972Z,31.50
2018-10-18T08:55:16.644Z,31.40
2018-10-18T08:57:44.150Z,30.90
2018-10-18T09:00:12.378Z,30.00
2018-10-18T09:02:40.860Z,28.60
2018-10-18T09:05:08.742Z,27.10
2018-10-18T09:07:36.824Z,25.80
2018-10-18T09:10:05.300Z,24.50
2018-10-18T09:12:33.276Z,23.40
2018-10-18T09:15:00.837Z,22.50
2018-10-18T09:17:28.405Z,21.70
2018-10-18T09:19:55.985Z,21.00
2018-10-18T09:22:23.556Z,20.50
2018-10-18T09:24:51.161Z,20.20
2018-10-18T09:27:18.673Z,20.10
2018-10-18T09:29:46.279Z,20.10
2018-10-18T09:32:13.835Z,20.00
2018-10-18T09:34:41.370Z,19.80
2018-10-18T09:37:09.056Z,19.70
2018-10-18T09:39:36.544Z,19.60
2018-10-18T09:42:04.801Z,19.40
2018-10-18T09:44:32.417Z,19.20
2018-10-18T09:47:00.004Z,19.00
2018-10-18T09:49:27.591Z,19.00
2018-10-18T09:51:55.162Z,19.00
2018-10-18T09:54:22.781Z,19.00
2018-10-18T09:56:51.114Z,18.80
2018-10-18T09:59:18.641Z,18.70
2018-10-18T10:01:51.675Z,18.60
2018-10-18T10:04:19.340Z,18.50
2018-10-18T10:06:46.928Z,18.30
2018-10-18T10:09:14.491Z,18.20
2018-10-18T10:11:42.204Z,18.00
2018-10-18T10:14:09.666Z,17.90
2018-10-18T10:16:37.455Z,17.90
2018-10-18T10:19:05.128Z,18.00
2018-10-18T10:21:32.748Z,18.00
2018-10-18T10:24:00.302Z,18.00
2018-10-18T10:26:27.897Z,18.00
2018-10-18T10:28:55.417Z,17.90
2018-10-18T10:31:22.964Z,17.90
2018-10-18T10:33:50.531Z,17.90
2018-10-18T10:36:18.160Z,17.90
2018-10-18T10:38:45.696Z,17.80
2018-10-18T10:41:13.556Z,17.80
2018-10-18T10:43:40.912Z,17.80
2018-10-18T10:46:08.549Z,17.70
2018-10-18T10:48:36.116Z,17.70
2018-10-18T10:51:03.728Z,17.70
2018-10-18T10:53:31.297Z,17.70
2018-10-18T10:55:58.852Z,17.70
2018-10-18T10:58:26.488Z,17.80
2018-10-18T11:01:25.790Z,17.80
2018-10-18T11:03:54.636Z,17.70
2018-10-18T11:06:22.506Z,17.80
2018-10-18T11:08:50.102Z,17.80
2018-10-18T11:11:18.132Z,17.80
2018-10-18T11:13:45.773Z,17.80
2018-10-18T11:16:13.381Z,17.80
2018-10-18T11:18:41.353Z,17.80
2018-10-18T11:21:10.782Z,17.80
2018-10-18T11:23:38.340Z,17.80
2018-10-18T11:26:06.084Z,17.70
2018-10-18T11:28:33.605Z,17.70
2018-10-18T11:31:01.262Z,17.60
2018-10-18T11:33:28.823Z,17.70
2018-10-18T11:35:56.477Z,17.60
2018-10-18T11:38:24.000Z,17.60
2018-10-18T11:40:51.561Z,17.60
2018-10-18T11:43:19.108Z,17.60
2018-10-18T11:45:46.662Z,17.60
2018-10-18T11:48:14.776Z,17.60
2018-10-18T11:50:42.703Z,17.60
2018-10-18T11:53:10.360Z,17.70
2018-10-18T11:55:37.997Z,17.80
2018-10-18T11:58:06.609Z,17.90
2018-10-18T12:00:34.162Z,18.00
2018-10-18T12:03:01.741Z,17.90
2018-10-18T12:05:29.413Z,17.90
2018-10-18T12:07:57.100Z,17.80
2018-10-18T12:10:24.672Z,17.80
2018-10-18T12:12:52.199Z,17.70
2018-10-18T12:15:19.749Z,17.60
2018-10-18T12:17:47.288Z,17.60
2018-10-18T12:20:16.002Z,17.50
2018-10-18T12:22:43.518Z,17.40
2018-10-18T12:25:11.858Z,17.30
2018-10-18T12:27:39.516Z,17.20
2018-10-18T12:30:07.839Z,17.20
2018-10-18T12:32:35.869Z,17.20
2018-10-18T12:35:03.554Z,17.10
2018-10-18T12:37:31.073Z,17.00
2018-10-18T12:39:58.644Z,16.90
2018-10-18T12:42:26.201Z,16.80
2018-10-18T12:44:53.759Z,16.90
2018-10-18T12:47:21.338Z,16.90
2018-10-18T12:49:48.875Z,17.00
2018-10-18T12:52:16.435Z,17.20
2018-10-18T12:54:43.968Z,17.20
2018-10-18T12:57:12.399Z,17.30
2018-10-18T12:59:39.971Z,17.30
2018-10-18T13:02:07.665Z,17.30
2018-10-18T13:04:35.621Z,17.30
2018-10-18T13:07:03.646Z,17.20
2018-10-18T13:09:31.235Z,17.10
2018-10-18T13:11:59.688Z,17.00
2018-10-18T13:14:28.142Z,17.00
2018-10-18T13:16:55.849Z,16.80
2018-10-18T13:19:23.431Z,16.70
2018-10-18T13:21:50.960Z,16.60
2018-10-18T13:24:18.642Z,16.60
2018-10-18T13:26:46.126Z,16.60
2018-10-18T13:29:13.838Z,16.50
2018-10-18T13:31:41.358Z,16.50
2018-10-18T13:34:08.888Z,16.50
2018-10-18T13:36:36.503Z,16.50
2018-10-18T13:39:07.443Z,16.60
2018-10-18T13:41:35.006Z,16.70
2018-10-18T13:44:02.576Z,16.80
2018-10-18T13:46:30.179Z,16.80
2018-10-18T13:48:57.736Z,16.90
2018-10-18T13:51:25.303Z,17.00
2018-10-18T13:53:52.907Z,17.00
2018-10-18T13:56:20.411Z,17.00
2018-10-18T13:58:47.935Z,16.90
2018-10-18T14:01:15.490Z,16.90
2018-10-18T14:03:43.040Z,16.80
2018-10-18T14:06:10.593Z,16.80
2018-10-18T14:08:38.170Z,16.70
2018-10-18T14:11:05.782Z,16.60
2018-10-18T14:13:33.254Z,16.60
2018-10-18T14:16:00.796Z,16.60
2018-10-18T14:18:28.342Z,16.60
2018-10-18T14:20:55.870Z,16.50
2018-10-18T14:23:23.373Z,16.40
2018-10-18T14:25:50.957Z,16.30
2018-10-18T14:28:18.598Z,16.20
2018-10-18T14:30:46.261Z,16.00
2018-10-18T14:33:13.835Z,15.90
2018-10-18T14:35:41.380Z,15.70
2018-10-18T14:38:09.066Z,15.60
2018-10-18T14:40:36.528Z,15.50
2018-10-18T14:43:04.139Z,15.40
2018-10-18T14:45:31.690Z,15.20
2018-10-18T14:47:59.240Z,15.10
2018-10-18T14:50:26.837Z,15.00
2018-10-18T14:52:54.353Z,14.80
2018-10-18T14:55:21.953Z,14.70
2018-10-18T14:57:49.633Z,14.70
2018-10-18T15:00:17.189Z,14.50
2018-10-18T15:02:44.719Z,14.40
2018-10-18T15:05:12.999Z,14.30
2018-10-18T15:07:40.902Z,14.30
2018-10-18T15:10:12.522Z,14.20
2018-10-18T15:12:40.491Z,14.00
2018-10-18T15:15:08.971Z,14.00
2018-10-18T15:17:36.520Z,13.90
2018-10-18T15:20:05.453Z,13.70
2018-10-18T15:22:32.960Z,13.70
2018-10-18T15:25:00.536Z,13.60
2018-10-18T15:27:28.354Z,13.50
2018-10-18T15:29:55.766Z,13.40
2018-10-18T15:32:23.371Z,13.30
2018-10-18T15:34:50.966Z,13.20
2018-10-18T15:37:18.627Z,13.00
2018-10-18T15:39:46.270Z,12.90
2018-10-18T15:42:13.825Z,12.80
2018-10-18T15:44:41.420Z,12.70
2018-10-18T15:47:09.129Z,12.60
2018-10-18T15:49:36.645Z,12.60
2018-10-18T15:52:04.389Z,12.50
2018-10-18T15:54:32.240Z,12.50
2018-10-18T15:56:59.842Z,12.40
2018-10-18T15:59:27.379Z,12.40
2018-10-18T16:01:54.960Z,12.40
2018-10-18T16:04:22.518Z,12.30
2018-10-18T16:06:50.110Z,12.20
2018-10-18T16:09:17.656Z,12.10
2018-10-18T16:11:45.234Z,12.10
2018-10-18T16:14:12.901Z,12.00
2018-10-18T16:16:40.370Z,12.00
2018-10-18T16:19:07.946Z,12.00
2018-10-18T16:21:35.612Z,12.00
2018-10-18T16:24:03.428Z,11.90
2018-10-18T16:26:31.027Z,11.90
2018-10-18T16:28:58.972Z,11.90
2018-10-18T16:31:26.529Z,12.00
2018-10-18T16:33:54.126Z,12.00
2018-10-18T16:36:21.689Z,11.90
2018-10-18T16:38:49.285Z,11.90
2018-10-18T16:41:17.010Z,11.90
2018-10-18T16:43:44.507Z,11.90
2018-10-18T16:46:12.118Z,11.90
2018-10-18T16:48:39.710Z,11.90
2018-10-18T16:51:07.284Z,11.90
2018-10-18T16:53:34.915Z,11.90
2018-10-18T16:56:02.892Z,11.90
2018-10-18T16:58:30.461Z,11.90
2018-10-18T17:00:58.261Z,11.90
2018-10-18T17:03:25.862Z,11.90
2018-10-18T17:05:53.395Z,11.90
2018-10-18T17:08:21.098Z,11.90
2018-10-18T17:10:48.572Z,11.90
2018-10-18T17:13:16.171Z,11.90
2018-10-18T17:15:43.745Z,11.90
2018-10-18T17:18:11.419Z,11.90
2018-10-18T17:20:39.067Z,11.90
2018-10-18T17:23:06.535Z,11.90
2018-10-18T17:25:34.209Z,12.00
2018-10-18T17:28:02.103Z,11.90
2018-10-18T17:30:29.659Z,11.90
2018-10-18T17:32:57.248Z,11.90
2018-10-18T17:35:24.789Z,11.90
2018-10-18T17:37:52.390Z,11.90
2018-10-18T17:40:20.241Z,11.90
2018-10-18T17:42:47.742Z,11.90
2018-10-18T17:45:15.327Z,11.90
2018-10-18T17:47:44.049Z,11.90
2018-10-18T17:50:11.712Z,11.80
2018-10-18T17:52:39.276Z,11.80
2018-10-18T17:55:07.726Z,11.80
2018-10-18T17:57:35.773Z,11.80
2018-10-18T18:00:05.443Z,11.80
2018-10-18T18:02:33.037Z,11.70
2018-10-18T18:05:00.583Z,11.70
2018-10-18T18:07:28.158Z,11.70
2018-10-18T18:09:55.762Z,11.70
2018-10-18T18:12:23.336Z,11.70
2018-10-18T18:14:50.892Z,11.70
2018-10-18T18:17:18.671Z,11.70
2018-10-18T18:19:46.302Z,11.60
2018-10-18T18:22:13.945Z,11.60
2018-10-18T18:24:42.896Z,11.60
2018-10-18T18:27:10.501Z,11.60
2018-10-18T18:29:38.089Z,11.60
2018-10-18T18:32:05.756Z,11.60
2018-10-18T18:34:33.269Z,11.60
2018-10-18T18:37:00.824Z,11.60
2018-10-18T18:39:28.428Z,11.60
2018-10-18T18:41:55.965Z,11.60
2018-10-18T18:44:23.532Z,11.60
2018-10-18T18:46:51.074Z,11.50
2018-10-18T18:49:18.707Z,11.50
2018-10-18T18:51:46.254Z,11.50
2018-10-18T18:54:13.817Z,11.50
2018-10-18T18:56:41.380Z,11.50
2018-10-18T18:59:08.932Z,11.50
2018-10-18T19:01:36.483Z,11.50
2018-10-18T19:04:04.797Z,11.60
2018-10-18T19:06:32.480Z,11.60
2018-10-18T19:09:00.526Z,11.60
2018-10-18T19:11:28.048Z,11.60
2018-10-18T19:13:55.666Z,11.50
2018-10-18T19:16:24.279Z,11.50
2018-10-18T19:18:51.811Z,11.50
2018-10-18T19:21:19.350Z,11.50
2018-10-18T19:23:46.891Z,11.50
2018-10-18T19:26:14.453Z,11.50
2018-10-18T19:28:42.048Z,11.50
2018-10-18T19:31:09.553Z,11.50
2018-10-18T19:33:37.091Z,11.50
2018-10-18T19:36:04.699Z,11.50
2018-10-18T19:38:32.317Z,11.50
2018-10-18T19:40:59.790Z,11.50
2018-10-18T19:43:27.380Z,11.50
2018-10-18T19:45:54.958Z,11.50
2018-10-18T19:48:22.459Z,11.50
2018-10-18T19:50:50.846Z,11.40
2018-10-18T19:53:18.314Z,11.40
2018-10-18T19:55:45.943Z,11.40
2018-10-18T19:58:13.567Z,11.40
2018-10-18T20:00:41.022Z,11.40
2018-10-18T20:03:08.588Z,11.50
2018-10-18T20:05:36.314Z,11.50
2018-10-18T20:08:04.131Z,11.50
2018-10-18T20:10:31.787Z,11.50
2018-10-18T20:12:59.574Z,11.50
2018-10-18T20:15:26.998Z,11.50
2018-10-18T20:17:54.531Z,11.50
2018-10-18T20:20:22.302Z,11.50
2018-10-18T20:22:49.875Z,11.50
2018-10-18T20:25:17.421Z,11.50
2018-10-18T20:27:44.953Z,11.40
2018-10-18T20:30:13.948Z,11.40
2018-10-18T20:32:42.198Z,11.40
2018-10-18T20:35:11.326Z,11.40
2018-10-18T20:37:39.565Z,11.40
2018-10-18T20:40:09.494Z,11.40
2018-10-18T20:42:37.069Z,11.40
2018-10-18T20:45:05.552Z,11.40
2018-10-18T20:47:33.234Z,11.40
2018-10-18T20:50:00.652Z,11.40
2018-10-18T20:52:28.222Z,11.40
2018-10-18T20:54:55.800Z,11.40
2018-10-18T20:57:23.406Z,11.40
2018-10-18T20:59:51.029Z,11.40
2018-10-18T21:02:18.765Z,11.40
2018-10-18T21:04:46.312Z,11.40
2018-10-18T21:07:14.538Z,11.40
2018-10-18T21:09:42.653Z,11.40
2018-10-18T21:12:10.255Z,11.40
2018-10-18T21:14:37.909Z,11.40
2018-10-18T21:17:05.916Z,11.40
2018-10-18T21:19:33.389Z,11.40
2018-10-18T21:22:02.328Z,11.40
2018-10-18T21:24:30.165Z,11.40
2018-10-18T21:26:58.651Z,11.40
2018-10-18T21:29:26.165Z,11.40
2018-10-18T21:31:53.808Z,11.40
2018-10-18T21:34:21.401Z,11.40
2018-10-18T21:36:49.215Z,11.40
2018-10-18T21:39:32.598Z,11.40
2018-10-18T21:42:01.247Z,11.40
2018-10-18T21:44:30.484Z,11.40
2018-10-18T21:46:58.577Z,11.40
2018-10-18T21:49:26.808Z,11.40
2018-10-18T21:51:54.367Z,11.50
2018-10-18T21:54:22.550Z,11.50
2018-10-18T21:56:50.357Z,11.50
2018-10-18T21:59:17.960Z,11.50
2018-10-18T22:01:46.222Z,11.50
2018-10-18T22:04:14.127Z,11.40
2018-10-18T22:06:41.689Z,11.50
2018-10-18T22:09:09.255Z,11.50
2018-10-18T22:11:37.938Z,11.50
2018-10-18T22:14:06.412Z,11.50
2018-10-18T22:16:33.966Z,11.50
2018-10-18T22:19:01.939Z,11.50
2018-10-18T22:21:29.481Z,11.50
2018-10-18T22:23:57.091Z,11.50
2018-10-18T22:26:24.558Z,11.50
2018-10-18T22:28:52.114Z,11.50
2018-10-18T22:31:19.614Z,11.40
2018-10-18T22:33:47.179Z,11.50
2018-10-18T22:36:14.798Z,11.50
2018-10-18T22:38:42.413Z,11.50
2018-10-18T22:41:10.136Z,11.50
2018-10-18T22:43:38.327Z,11.50
2018-10-18T22:46:06.623Z,11.50
2018-10-18T22:48:34.258Z,11.50
2018-10-18T22:51:01.921Z,11.50
2018-10-18T22:53:29.498Z,11.50
2018-10-18T22:55:57.029Z,11.50
2018-10-18T22:58:24.803Z,11.50
2018-10-18T23:00:52.355Z,11.50
2018-10-18T23:03:20.649Z,11.50
2018-10-18T23:05:48.727Z,11.50
2018-10-18T23:08:16.223Z,11.50
2018-10-18T23:10:44.242Z,11.50
2018-10-18T23:13:11.809Z,11.50
2018-10-18T23:15:40.312Z,11.50
2018-10-18T23:18:08.877Z,11.50
2018-10-18T23:20:36.954Z,11.50
2018-10-18T23:23:04.763Z,11.50
2018-10-18T23:25:33.828Z,11.50
2018-10-18T23:28:01.790Z,11.50
2018-10-18T23:30:29.940Z,11.50
2018-10-18T23:32:57.568Z,11.50
2018-10-18T23:35:25.027Z,11.50
2018-10-18T23:37:52.584Z,11.50
2018-10-18T23:40:20.271Z,11.50
2018-10-18T23:42:47.782Z,11.50
2018-10-18T23:45:15.412Z,11.50
2018-10-18T23:47:42.879Z,11.50
2018-10-18T23:50:10.431Z,11.50
2018-10-18T23:52:37.989Z,11.50
2018-10-18T23:55:05.667Z,11.60
2018-10-18T23:57:33.198Z,11.60
